createdAt,value
2022-12-26T00:01:10.238Z,13.40
2022-12-26T00:03:38.980Z,13.40
2022-12-26T00:06:13.570Z,13.40
2022-12-26T00:08:41.771Z,13.30
2022-12-26T00:11:09.930Z,13.30
2022-12-26T00:13:41.421Z,13.20
2022-12-26T00:16:10.778Z,13.20
2022-12-26T00:18:39.576Z,13.20
2022-12-26T00:21:10.863Z,13.20
2022-12-26T00:23:39.682Z,13.20
2022-12-26T00:26:09.884Z,13.10
2022-12-26T00:28:38.246Z,13.10
2022-12-26T00:31:06.908Z,13.10
2022-12-26T00:33:35.975Z,13.10
2022-12-26T00:36:05.406Z,13.10
2022-12-26T00:38:35.918Z,13.10
2022-12-26T00:41:04.435Z,13.10
2022-12-26T00:43:32.622Z,13.10
2022-12-26T00:46:00.648Z,13.10
2022-12-26T00:48:28.774Z,13.10
2022-12-26T00:50:57.363Z,13.10
2022-12-26T00:53:26.063Z,13.10
2022-12-26T00:55:55.884Z,13.10
2022-12-26T00:58:24.401Z,13.10
2022-12-26T01:00:52.825Z,13.10
2022-12-26T01:03:20.915Z,13.00
2022-12-26T01:05:50.872Z,13.00
2022-12-26T01:08:24.628Z,13.00
2022-12-26T01:10:53.363Z,13.00
2022-12-26T01:13:22.677Z,13.00
2022-12-26T01:15:51.836Z,13.00
2022-12-26T01:18:20.424Z,12.90
2022-12-26T01:20:48.846Z,12.90
2022-12-26T01:23:16.867Z,12.90
2022-12-26T01:26:17.360Z,12.90
2022-12-26T01:28:34.458Z,12.90
2022-12-26T01:31:03.667Z,12.90
2022-12-26T01:33:31.907Z,12.80
2022-12-26T01:36:00.563Z,12.80
2022-12-26T01:38:28.860Z,12.80
2022-12-26T01:41:10.736Z,12.80
2022-12-26T01:43:56.040Z,12.80
2022-12-26T01:46:28.444Z,12.80
2022-12-26T01:48:59.347Z,12.80
2022-12-26T01:51:32.525Z,12.70
2022-12-26T01:54:41.419Z,12.70
2022-12-26T01:56:53.053Z,12.60
2022-12-26T01:59:26.287Z,12.60
2022-12-26T02:01:55.474Z,12.60
2022-12-26T02:04:45.469Z,12.60
2022-12-26T02:07:14.732Z,12.60
2022-12-26T02:09:43.132Z,12.60
2022-12-26T02:12:33.730Z,12.60
2022-12-26T02:15:07.805Z,12.60
2022-12-26T02:17:35.655Z,12.60
2022-12-26T02:20:18.273Z,12.70
2022-12-26T02:23:30.446Z,12.70
2022-12-26T02:26:29.206Z,12.70
2022-12-26T02:29:32.932Z,12.60
2022-12-26T02:32:10.067Z,12.60
2022-12-26T02:34:47.972Z,12.60
2022-12-26T02:37:30.693Z,12.70
2022-12-26T02:40:10.319Z,12.70
2022-12-26T02:42:50.898Z,12.70
2022-12-26T02:45:44.206Z,12.80
2022-12-26T02:48:19.782Z,12.70
2022-12-26T02:51:17.468Z,12.70
2022-12-26T02:54:10.041Z,12.70
2022-12-26T02:56:59.297Z,12.70
2022-12-26T02:59:56.799Z,12.70
2022-12-26T03:02:49.831Z,12.80
2022-12-26T03:05:43.316Z,12.80
2022-12-26T03:08:32.595Z,12.80
2022-12-26T03:11:18.174Z,12.80
2022-12-26T03:13:48.353Z,12.80
2022-12-26T03:16:37.274Z,12.70
2022-12-26T03:19:09.491Z,12.70
2022-12-26T03:21:43.601Z,12.70
2022-12-26T03:24:13.327Z,12.70
2022-12-26T03:26:47.632Z,12.70
2022-12-26T03:29:35.481Z,12.70
2022-12-26T03:32:07.613Z,12.60
2022-12-26T03:34:40.564Z,12.60
2022-12-26T03:37:48.466Z,12.60
2022-12-26T03:41:12.686Z,12.50
2022-12-26T03:44:22.387Z,12.50
2022-12-26T03:47:21.468Z,12.50
2022-12-26T03:50:11.650Z,12.50
2022-12-26T03:53:07.375Z,12.50
2022-12-26T03:56:01.528Z,12.50
2022-12-26T03:58:53.373Z,12.40
2022-12-26T04:01:41.680Z,12.40
2022-12-26T04:04:31.229Z,12.40
2022-12-26T04:07:21.708Z,12.40
2022-12-26T04:10:11.629Z,12.40
2022-12-26T04:13:00.678Z,12.40
2022-12-26T04:15:52.541Z,12.40
2022-12-26T04:18:51.215Z,12.50
2022-12-26T04:21:44.200Z,12.50
2022-12-26T04:24:35.902Z,12.50
2022-12-26T04:27:25.168Z,12.50
2022-12-26T04:30:10.572Z,12.50
2022-12-26T04:32:59.899Z,12.60
2022-12-26T04:35:49.302Z,12.50
2022-12-26T04:38:42.715Z,12.50
2022-12-26T04:41:30.731Z,12.60
2022-12-26T04:44:10.063Z,12.60
2022-12-26T04:46:40.539Z,12.60
2022-12-26T04:49:28.332Z,12.50
2022-12-26T04:51:57.473Z,12.50
2022-12-26T04:54:26.011Z,12.50
2022-12-26T04:56:54.337Z,12.50
2022-12-26T04:59:23.955Z,12.40
2022-12-26T05:02:17.824Z,12.40
2022-12-26T05:05:03.542Z,12.40
2022-12-26T05:07:52.427Z,12.40
2022-12-26T05:10:21.987Z,12.30
2022-12-26T05:12:50.543Z,12.30
2022-12-26T05:15:20.127Z,12.30
2022-12-26T05:18:05.681Z,12.20
2022-12-26T05:20:51.197Z,12.20
2022-12-26T05:23:39.714Z,12.20
2022-12-26T05:26:30.017Z,12.20
2022-12-26T05:29:01.152Z,12.10
2022-12-26T05:31:35.483Z,12.10
2022-12-26T05:34:06.742Z,12.00
2022-12-26T05:36:39.329Z,12.00
2022-12-26T05:39:08.714Z,11.90
2022-12-26T05:41:37.194Z,11.90
2022-12-26T05:44:05.752Z,11.90
2022-12-26T05:46:35.881Z,11.80
2022-12-26T05:49:04.372Z,11.80
2022-12-26T05:51:32.563Z,11.80
2022-12-26T05:54:00.959Z,11.70
2022-12-26T05:56:28.922Z,11.70
2022-12-26T05:58:57.993Z,11.70
2022-12-26T06:01:27.635Z,11.70
2022-12-26T06:03:58.626Z,11.60
2022-12-26T06:06:29.007Z,11.60
2022-12-26T06:08:58.488Z,11.60
2022-12-26T06:11:27.352Z,11.50
2022-12-26T06:13:55.844Z,11.50
2022-12-26T06:16:24.183Z,11.50
2022-12-26T06:18:52.210Z,11.40
2022-12-26T06:21:22.397Z,11.40
2022-12-26T06:23:50.717Z,11.40
2022-12-26T06:26:18.935Z,11.30
2022-12-26T06:28:47.754Z,11.30
2022-12-26T06:31:20.767Z,11.30
2022-12-26T06:33:49.672Z,11.20
2022-12-26T06:36:20.167Z,11.20
2022-12-26T06:38:49.757Z,11.20
2022-12-26T06:41:19.591Z,11.20
2022-12-26T06:43:47.593Z,11.20
2022-12-26T06:46:18.356Z,11.10
2022-12-26T06:48:46.442Z,11.10
2022-12-26T06:51:16.455Z,11.10
2022-12-26T06:53:44.754Z,11.10
2022-12-26T06:56:15.877Z,11.10
2022-12-26T06:58:44.320Z,11.10
2022-12-26T07:01:13.970Z,11.10
2022-12-26T07:03:50.382Z,11.10
2022-12-26T07:06:23.657Z,11.10
2022-12-26T07:08:52.428Z,11.10
2022-12-26T07:11:24.223Z,11.10
2022-12-26T07:13:53.076Z,11.10
2022-12-26T07:16:21.054Z,11.10
2022-12-26T07:18:49.224Z,11.10
2022-12-26T07:21:17.457Z,11.10
2022-12-26T07:23:45.387Z,11.10
2022-12-26T07:26:13.285Z,11.10
2022-12-26T07:28:42.515Z,11.00
2022-12-26T07:31:10.918Z,11.00
2022-12-26T07:33:40.009Z,11.00
2022-12-26T07:36:08.957Z,11.00
2022-12-26T07:38:36.842Z,11.00
2022-12-26T07:41:25.231Z,10.90
2022-12-26T07:43:54.497Z,11.00
2022-12-26T07:46:22.869Z,11.00
2022-12-26T07:48:50.810Z,10.90
2022-12-26T07:51:18.729Z,10.90
2022-12-26T07:53:46.632Z,11.00
2022-12-26T07:56:14.513Z,10.90
2022-12-26T07:58:42.391Z,11.00
2022-12-26T08:01:11.780Z,11.00
2022-12-26T08:03:39.875Z,11.00
2022-12-26T08:06:08.094Z,11.00
2022-12-26T08:08:37.348Z,11.00
2022-12-26T08:11:07.143Z,11.00
2022-12-26T08:13:35.607Z,10.90
2022-12-26T08:16:06.715Z,10.90
2022-12-26T08:18:36.471Z,11.00
2022-12-26T08:21:04.503Z,11.00
2022-12-26T08:23:32.476Z,11.00
2022-12-26T08:26:00.412Z,11.00
2022-12-26T08:28:28.735Z,11.00
2022-12-26T08:30:56.630Z,11.00
2022-12-26T08:33:24.515Z,11.00
2022-12-26T08:35:53.826Z,11.00
2022-12-26T08:38:21.697Z,11.00
2022-12-26T08:40:56.554Z,11.00
2022-12-26T08:46:13.641Z,11.10
2022-12-26T08:48:42.320Z,11.10
2022-12-26T08:51:15.362Z,11.20
2022-12-26T08:53:44.242Z,11.30
2022-12-26T08:56:14.688Z,11.40
2022-12-26T08:58:43.086Z,11.40
2022-12-26T09:01:13.144Z,11.50
2022-12-26T09:03:41.558Z,11.60
2022-12-26T09:06:11.490Z,11.70
2022-12-26T09:08:41.774Z,11.80
2022-12-26T09:11:13.075Z,11.90
2022-12-26T09:13:41.628Z,12.00
2022-12-26T09:16:12.073Z,12.00
2022-12-26T09:18:40.477Z,12.10
2022-12-26T09:21:13.099Z,12.10
2022-12-26T09:23:42.060Z,12.20
2022-12-26T09:26:12.088Z,12.30
2022-12-26T09:28:40.539Z,12.30
2022-12-26T09:31:12.655Z,12.40
2022-12-26T09:33:40.924Z,12.60
2022-12-26T09:36:15.072Z,12.80
2022-12-26T09:38:43.877Z,12.90
2022-12-26T09:41:27.075Z,13.00
2022-12-26T09:44:04.331Z,13.10
2022-12-26T09:46:35.891Z,13.10
2022-12-26T09:49:11.111Z,13.20
2022-12-26T09:51:44.410Z,13.30
2022-12-26T09:54:19.810Z,13.40
2022-12-26T09:57:05.324Z,13.50
2022-12-26T09:59:44.708Z,13.70
2022-12-26T10:02:19.016Z,13.80
2022-12-26T10:04:47.104Z,13.90
2022-12-26T10:07:25.157Z,13.90
2022-12-26T10:10:00.945Z,13.90
2022-12-26T10:12:39.887Z,13.90
2022-12-26T10:15:18.027Z,13.90
2022-12-26T10:17:52.264Z,13.90
2022-12-26T10:20:27.893Z,13.90
2022-12-26T10:23:20.224Z,14.00
2022-12-26T10:25:52.088Z,14.00
2022-12-26T10:28:29.346Z,14.10
2022-12-26T10:30:59.619Z,14.20
2022-12-26T10:33:36.356Z,14.20
2022-12-26T10:36:04.598Z,14.40
2022-12-26T10:38:38.296Z,14.50
2022-12-26T10:41:14.047Z,14.80
2022-12-26T10:43:44.795Z,14.90
2022-12-26T10:46:45.649Z,15.00
2022-12-26T10:49:17.157Z,14.80
2022-12-26T10:51:46.080Z,14.70
2022-12-26T10:54:18.509Z,14.50
2022-12-26T10:56:49.138Z,14.40
2022-12-26T10:59:20.896Z,14.20
2022-12-26T11:01:49.565Z,14.20
2022-12-26T11:04:44.593Z,14.10
2022-12-26T11:07:12.397Z,14.10
2022-12-26T11:09:43.961Z,14.10
2022-12-26T11:12:21.982Z,14.20
2022-12-26T11:14:50.339Z,14.30
2022-12-26T11:17:27.829Z,14.30
2022-12-26T11:20:23.875Z,14.30
2022-12-26T11:22:51.995Z,14.30
2022-12-26T11:25:25.108Z,14.30
2022-12-26T11:27:55.844Z,14.30
2022-12-26T11:30:28.798Z,14.30
2022-12-26T11:33:16.816Z,14.40
2022-12-26T11:35:50.819Z,14.50
2022-12-26T11:41:36.508Z,14.60
2022-12-26T11:44:16.641Z,14.70
2022-12-26T11:46:48.132Z,14.90
2022-12-26T11:49:23.426Z,15.20
2022-12-26T11:51:58.793Z,15.50
2022-12-26T11:54:34.801Z,15.70
2022-12-26T11:57:18.392Z,15.80
2022-12-26T11:59:46.850Z,15.70
2022-12-26T12:02:26.202Z,15.60
2022-12-26T12:04:57.968Z,15.60
2022-12-26T12:07:56.270Z,15.40
2022-12-26T12:10:48.659Z,15.20
2022-12-26T12:13:29.525Z,14.90
2022-12-26T12:16:04.268Z,14.90
2022-12-26T12:18:43.020Z,14.80
2022-12-26T12:21:18.297Z,14.70
2022-12-26T12:23:58.270Z,14.60
2022-12-26T12:26:31.797Z,14.50
2022-12-26T12:29:21.052Z,14.50
2022-12-26T12:32:07.144Z,14.30
2022-12-26T12:34:48.566Z,14.20
2022-12-26T12:37:26.724Z,14.00
2022-12-26T12:40:03.784Z,13.80
2022-12-26T12:42:45.522Z,13.70
2022-12-26T12:45:27.838Z,13.50
2022-12-26T12:48:20.457Z,13.30
2022-12-26T12:50:56.489Z,13.20
2022-12-26T12:53:38.298Z,13.00
2022-12-26T12:56:21.914Z,13.00
2022-12-26T12:58:57.219Z,12.90
2022-12-26T13:01:32.020Z,12.90
2022-12-26T13:04:06.530Z,12.90
2022-12-26T13:06:42.022Z,12.90
2022-12-26T13:09:17.134Z,12.90
2022-12-26T13:11:49.926Z,13.00
2022-12-26T13:14:23.388Z,13.00
2022-12-26T13:16:57.102Z,13.00
2022-12-26T13:19:28.432Z,13.00
2022-12-26T13:22:01.986Z,13.00
2022-12-26T13:24:35.547Z,12.90
2022-12-26T13:27:11.013Z,12.80
2022-12-26T13:29:42.935Z,12.80
2022-12-26T13:32:25.175Z,12.80
2022-12-26T13:34:56.342Z,12.70
2022-12-26T13:37:56.876Z,12.70
2022-12-26T13:40:30.428Z,12.60
2022-12-26T13:43:20.244Z,12.50
2022-12-26T13:45:51.578Z,12.40
2022-12-26T13:49:08.728Z,12.20
2022-12-26T13:51:59.950Z,12.00
2022-12-26T13:54:29.819Z,11.80
2022-12-26T13:57:28.798Z,11.70
2022-12-26T14:00:07.251Z,11.60
2022-12-26T14:03:17.441Z,11.50
2022-12-26T14:05:58.922Z,11.40
2022-12-26T14:08:37.882Z,11.40
2022-12-26T14:11:21.619Z,11.30
2022-12-26T14:14:04.762Z,11.30
2022-12-26T14:16:39.713Z,11.20
2022-12-26T14:19:18.865Z,11.20
2022-12-26T14:21:54.804Z,11.20
2022-12-26T14:24:32.019Z,11.10
2022-12-26T14:27:24.704Z,11.10
2022-12-26T14:30:07.036Z,11.00
2022-12-26T14:32:43.371Z,10.90
2022-12-26T14:35:17.174Z,10.90
2022-12-26T14:37:52.818Z,10.80
2022-12-26T14:40:30.457Z,10.80
2022-12-26T14:43:11.920Z,10.70
2022-12-26T14:45:45.989Z,10.60
2022-12-26T14:48:40.489Z,10.50
2022-12-26T14:51:29.588Z,10.50
2022-12-26T14:54:35.342Z,10.50
2022-12-26T14:57:40.477Z,10.40
2022-12-26T15:00:33.595Z,10.30
2022-12-26T15:03:28.747Z,10.30
2022-12-26T15:06:14.793Z,10.30
2022-12-26T15:09:01.548Z,10.30
2022-12-26T15:11:53.366Z,10.20
2022-12-26T15:15:12.975Z,10.20
2022-12-26T15:17:51.434Z,10.20
2022-12-26T15:20:59.952Z,10.10
2022-12-26T15:24:03.856Z,10.10
2022-12-26T15:26:59.472Z,10.10
2022-12-26T15:29:59.430Z,10.00
2022-12-26T15:32:38.087Z,10.00
2022-12-26T15:35:17.184Z,10.00
2022-12-26T15:38:07.537Z,10.00
2022-12-26T15:40:43.183Z,10.00
2022-12-26T15:43:40.875Z,10.00
2022-12-26T15:46:21.966Z,10.00
2022-12-26T15:49:19.806Z,10.00
2022-12-26T15:51:58.813Z,10.00
2022-12-26T15:54:49.222Z,9.90
2022-12-26T15:57:25.135Z,9.90
2022-12-26T16:00:10.748Z,9.80
2022-12-26T16:02:46.833Z,9.70
2022-12-26T16:05:38.639Z,9.70
2022-12-26T16:08:28.609Z,9.60
2022-12-26T16:11:13.786Z,9.50
2022-12-26T16:13:51.819Z,9.50
2022-12-26T16:16:27.126Z,9.40
2022-12-26T16:18:55.433Z,9.40
2022-12-26T16:21:46.537Z,9.40
2022-12-26T16:24:17.866Z,9.30
2022-12-26T16:26:47.922Z,9.20
2022-12-26T16:29:19.678Z,9.20
2022-12-26T16:31:47.907Z,9.20
2022-12-26T16:34:20.998Z,9.10
2022-12-26T16:36:51.780Z,9.10
2022-12-26T16:39:23.792Z,9.10
2022-12-26T16:42:01.555Z,9.10
2022-12-26T16:44:35.537Z,9.00
2022-12-26T16:47:05.742Z,9.00
2022-12-26T16:49:35.843Z,9.00
2022-12-26T16:52:07.659Z,8.90
2022-12-26T16:54:39.299Z,8.90
2022-12-26T16:57:12.790Z,8.90
2022-12-26T16:59:49.867Z,8.80
2022-12-26T17:02:21.864Z,8.80
2022-12-26T17:04:58.550Z,8.80
2022-12-26T17:07:29.212Z,8.70
2022-12-26T17:09:59.397Z,8.70
2022-12-26T17:12:32.361Z,8.70
2022-12-26T17:15:01.567Z,8.60
2022-12-26T17:17:37.544Z,8.60
2022-12-26T17:20:37.650Z,8.60
2022-12-26T17:23:36.795Z,8.50
2022-12-26T17:26:23.555Z,8.50
2022-12-26T17:28:52.062Z,8.50
2022-12-26T17:31:24.734Z,8.40
2022-12-26T17:33:56.699Z,8.30
2022-12-26T17:39:21.743Z,8.20
2022-12-26T17:41:52.894Z,8.10
2022-12-26T17:44:38.558Z,8.10
2022-12-26T17:47:19.630Z,8.00
2022-12-26T17:49:48.138Z,8.00
2022-12-26T17:52:18.730Z,7.90
2022-12-26T17:54:50.081Z,7.80
2022-12-26T17:57:21.253Z,7.80
2022-12-26T17:59:50.509Z,7.70
2022-12-26T18:02:19.014Z,7.60
2022-12-26T18:04:47.653Z,7.50
2022-12-26T18:07:19.440Z,7.40
2022-12-26T18:09:49.457Z,7.30
2022-12-26T18:12:18.178Z,7.20
2022-12-26T18:14:46.153Z,7.10
2022-12-26T18:17:18.249Z,7.00
2022-12-26T18:19:46.222Z,6.90
2022-12-26T18:22:15.855Z,6.80
2022-12-26T18:24:44.239Z,6.80
2022-12-26T18:27:19.343Z,6.70
2022-12-26T18:29:47.323Z,6.70
2022-12-26T18:32:23.579Z,6.60
2022-12-26T18:34:51.561Z,6.60
2022-12-26T18:37:20.760Z,6.50
2022-12-26T18:39:48.717Z,6.40
2022-12-26T18:42:18.585Z,6.40
2022-12-26T18:44:46.829Z,6.30
2022-12-26T18:47:17.238Z,6.30
2022-12-26T18:49:45.635Z,6.30
2022-12-26T18:52:17.440Z,6.20
2022-12-26T18:54:46.382Z,6.20
2022-12-26T18:57:19.780Z,6.10
2022-12-26T18:59:48.443Z,6.10
2022-12-26T19:02:18.580Z,6.00
2022-12-26T19:04:48.259Z,6.00
2022-12-26T19:07:17.156Z,6.00
2022-12-26T19:09:46.487Z,5.90
2022-12-26T19:12:14.710Z,5.90
2022-12-26T19:14:45.736Z,5.90
2022-12-26T19:17:14.062Z,5.90
2022-12-26T19:19:42.158Z,5.90
2022-12-26T19:22:10.474Z,5.80
2022-12-26T19:24:38.543Z,5.80
2022-12-26T19:27:06.504Z,5.80
2022-12-26T19:29:34.483Z,5.80
2022-12-26T19:32:03.844Z,5.80
2022-12-26T19:34:32.948Z,5.80
2022-12-26T19:37:00.845Z,5.80
2022-12-26T19:39:29.533Z,5.80
2022-12-26T19:41:57.465Z,5.70
2022-12-26T19:44:25.392Z,5.70
2022-12-26T19:47:11.789Z,5.70
2022-12-26T19:49:42.557Z,5.70
2022-12-26T19:52:11.124Z,5.60
2022-12-26T19:54:39.152Z,5.60
2022-12-26T19:57:07.147Z,5.50
2022-12-26T19:59:35.298Z,5.50
2022-12-26T20:02:03.472Z,5.50
2022-12-26T20:04:31.675Z,5.50
2022-12-26T20:07:01.485Z,5.40
2022-12-26T20:09:29.930Z,5.30
2022-12-26T20:11:58.354Z,5.30
2022-12-26T20:14:28.139Z,5.30
2022-12-26T20:17:06.076Z,5.20
2022-12-26T20:19:35.793Z,5.20
2022-12-26T20:22:05.755Z,5.10
2022-12-26T20:24:34.127Z,5.10
2022-12-26T20:27:02.398Z,5.10
2022-12-26T20:29:30.371Z,5.00
2022-12-26T20:31:58.986Z,5.00
2022-12-26T20:34:27.267Z,5.00
2022-12-26T20:36:55.255Z,5.00
2022-12-26T20:39:25.591Z,4.90
2022-12-26T20:41:53.684Z,4.90
2022-12-26T20:44:21.849Z,4.80
2022-12-26T20:46:49.774Z,4.80
2022-12-26T20:49:17.739Z,4.80
2022-12-26T20:51:46.374Z,4.70
2022-12-26T20:54:16.122Z,4.70
2022-12-26T20:56:46.077Z,4.70
2022-12-26T20:59:14.127Z,4.70
2022-12-26T21:01:42.166Z,4.60
2022-12-26T21:04:16.860Z,4.60
2022-12-26T21:06:47.394Z,4.60
2022-12-26T21:09:15.457Z,4.60
2022-12-26T21:11:45.566Z,4.60
2022-12-26T21:14:16.538Z,4.50
2022-12-26T21:16:46.532Z,4.50
2022-12-26T21:19:15.823Z,4.40
2022-12-26T21:21:45.658Z,4.40
2022-12-26T21:24:15.736Z,4.40
2022-12-26T21:26:46.755Z,4.40
2022-12-26T21:29:17.343Z,4.40
2022-12-26T21:31:45.940Z,4.30
2022-12-26T21:34:15.594Z,4.40
2022-12-26T21:37:06.130Z,4.30
2022-12-26T21:39:35.127Z,4.30
2022-12-26T21:42:06.289Z,4.30
2022-12-26T21:44:35.384Z,4.30
2022-12-26T21:47:04.037Z,4.30
2022-12-26T21:49:32.196Z,4.30
2022-12-26T21:52:00.166Z,4.30
2022-12-26T21:54:49.093Z,4.20
2022-12-26T21:57:18.945Z,4.20
2022-12-26T21:59:59.833Z,4.20
2022-12-26T22:02:48.978Z,4.20
2022-12-26T22:05:18.204Z,4.20
2022-12-26T22:07:46.602Z,4.10
2022-12-26T22:10:35.487Z,4.10
2022-12-26T22:13:04.466Z,4.10
2022-12-26T22:15:50.661Z,4.00
2022-12-26T22:18:18.851Z,4.00
2022-12-26T22:20:47.128Z,4.00
2022-12-26T22:23:15.364Z,4.00
2022-12-26T22:25:43.365Z,3.90
2022-12-26T22:28:12.740Z,3.90
2022-12-26T22:30:47.775Z,3.90
2022-12-26T22:33:15.777Z,3.80
2022-12-26T22:35:43.673Z,3.80
2022-12-26T22:38:11.736Z,3.80
2022-12-26T22:40:39.634Z,3.80
2022-12-26T22:43:07.582Z,3.70
2022-12-26T22:45:41.841Z,3.70
2022-12-26T22:48:09.905Z,3.70
2022-12-26T22:50:38.164Z,3.70
2022-12-26T22:53:06.093Z,3.60
2022-12-26T22:55:34.120Z,3.60
2022-12-26T22:58:02.534Z,3.60
2022-12-26T23:00:30.696Z,3.60
2022-12-26T23:02:59.979Z,3.60
2022-12-26T23:05:28.600Z,3.60
2022-12-26T23:07:57.121Z,3.60
2022-12-26T23:10:25.801Z,3.50
2022-12-26T23:12:54.162Z,3.50
2022-12-26T23:15:24.802Z,3.50
2022-12-26T23:18:15.460Z,3.50
2022-12-26T23:21:02.651Z,3.50
2022-12-26T23:23:31.088Z,3.50
2022-12-26T23:26:01.587Z,3.40
2022-12-26T23:28:47.137Z,3.40
2022-12-26T23:31:15.881Z,3.30
2022-12-26T23:33:43.869Z,3.30
2022-12-26T23:36:13.300Z,3.30
2022-12-26T23:38:41.244Z,3.20
2022-12-26T23:41:09.083Z,3.20
2022-12-26T23:43:36.976Z,3.20
2022-12-26T23:46:09.778Z,3.20
2022-12-26T23:48:38.051Z,3.20
2022-12-26T23:51:08.704Z,3.20
2022-12-26T23:53:37.903Z,3.10
2022-12-26T23:56:08.930Z,3.10
2022-12-26T23:58:39.792Z,3.10
